Time;durP1;ratioP1;P1;durP2;ratioP2;P2;SDS_P1;SDS_P2;PMS_P1;PMS_P2;Temp;Humidity;BMP_temperature;BMP_pressure;BME280_temperature;BME280_humidity;BME280_pressure;Samples;Min_cycle;Max_cycle;Signal;HPM_P1;HPM_P2
2022/04/29 00:01:30;;;;;;;12.13;8.63;;;12.00;99.90;;;;;;5031914;28;20178;-91
2022/04/29 00:03:56;;;;;;;13.47;8.77;;;12.00;99.90;;;;;;5014387;28;20185;-87
2022/04/29 00:06:22;;;;;;;13.20;8.43;;;12.00;99.90;;;;;;5013586;28;20194;-87
2022/04/29 00:08:47;;;;;;;15.03;9.13;;;12.00;99.90;;;;;;5032061;28;20549;-86
2022/04/29 00:11:14;;;;;;;12.83;9.50;;;11.90;99.90;;;;;;5033684;28;20498;-91
2022/04/29 00:13:39;;;;;;;13.85;9.20;;;11.90;99.90;;;;;;5024816;28;20198;-90
2022/04/29 00:16:05;;;;;;;11.63;9.90;;;11.90;99.90;;;;;;5030054;28;20182;-86
2022/04/29 00:18:32;;;;;;;16.67;10.70;;;11.80;99.90;;;;;;5014816;28;20285;-91
2022/04/29 00:20:58;;;;;;;15.05;10.00;;;11.80;99.90;;;;;;5031589;28;20431;-90
2022/04/29 00:23:23;;;;;;;14.63;9.23;;;11.80;99.90;;;;;;5031447;28;20194;-91
2022/04/29 00:25:50;;;;;;;14.18;8.68;;;11.80;99.90;;;;;;5031459;28;20214;-87
2022/04/29 00:28:16;;;;;;;14.50;9.50;;;11.80;99.90;;;;;;5031191;28;20198;-91
2022/04/29 00:30:42;;;;;;;14.33;10.03;;;11.80;99.90;;;;;;5013590;28;20267;-86
2022/04/29 00:33:08;;;;;;;16.83;10.40;;;11.70;99.90;;;;;;5031100;28;20304;-87
2022/04/29 00:35:34;;;;;;;11.80;8.17;;;11.80;99.90;;;;;;5015207;28;20187;-91
2022/04/29 00:38:00;;;;;;;11.18;8.68;;;11.70;99.90;;;;;;5031043;28;20228;-92
2022/04/29 00:40:28;;;;;;;11.90;8.60;;;11.70;99.90;;;;;;5014070;28;20226;-87
2022/04/29 00:42:55;;;;;;;12.18;8.05;;;11.70;99.90;;;;;;5031327;28;20468;-87
2022/04/29 00:45:22;;;;;;;12.18;7.72;;;11.70;99.90;;;;;;5014685;28;20187;-87
2022/04/29 00:47:49;;;;;;;9.85;7.78;;;11.60;99.90;;;;;;5014877;28;20206;-91
2022/04/29 00:50:18;;;;;;;11.30;8.30;;;11.60;99.90;;;;;;5017420;28;20187;-87
2022/04/29 00:52:48;;;;;;;11.52;8.15;;;11.60;99.90;;;;;;5036092;28;20195;-91
2022/04/29 00:55:15;;;;;;;11.63;7.05;;;11.50;99.90;;;;;;5035919;28;20186;-87
2022/04/29 00:57:45;;;;;;;11.88;7.95;;;11.50;99.90;;;;;;5018741;28;20575;-87
2022/04/29 01:00:14;;;;;;;10.55;8.23;;;11.40;99.90;;;;;;5019408;28;20612;-91
2022/04/29 01:02:48;;;;;;;13.30;7.65;;;11.40;99.90;;;;;;5026524;28;20702;-87
2022/04/29 01:05:16;;;;;;;10.80;7.85;;;11.30;99.90;;;;;;5034112;28;20243;-91
2022/04/29 01:07:44;;;;;;;13.07;8.68;;;11.30;99.90;;;;;;5033505;28;20239;-88
2022/04/29 01:10:12;;;;;;;11.75;7.50;;;11.30;99.90;;;;;;5016002;28;20734;-87
2022/04/29 01:12:40;;;;;;;12.57;7.93;;;11.30;99.90;;;;;;5016128;28;20653;-91
2022/04/29 01:15:09;;;;;;;11.82;7.07;;;11.20;99.90;;;;;;5016510;28;20647;-91
2022/04/29 01:17:36;;;;;;;12.63;8.70;;;11.20;99.90;;;;;;5017028;28;20206;-87
2022/04/29 01:20:07;;;;;;;13.30;8.27;;;11.20;99.90;;;;;;5034326;28;20175;-92
2022/04/29 01:22:33;;;;;;;11.85;7.00;;;11.10;99.90;;;;;;5000088;28;20203;-87
2022/04/29 01:24:59;;;;;;;15.93;7.88;;;11.10;99.90;;;;;;5034068;28;20175;-86
2022/04/29 01:27:25;;;;;;;10.87;7.60;;;11.00;99.90;;;;;;5030096;28;20292;-91
2022/04/29 01:29:58;;;;;;;12.37;7.50;;;11.00;99.90;;;;;;5055071;28;20261;-91
2022/04/29 01:32:26;;;;;;;12.80;6.75;;;11.00;99.90;;;;;;5037204;28;20222;-90
2022/04/29 01:34:51;;;;;;;13.80;8.27;;;11.00;99.90;;;;;;5036769;28;20646;-89
2022/04/29 01:37:17;;;;;;;11.57;7.50;;;10.90;99.90;;;;;;5054823;28;20196;-91
2022/04/29 01:39:43;;;;;;;12.07;7.50;;;10.90;99.90;;;;;;5061788;28;20405;-91
2022/04/29 01:42:10;;;;;;;10.30;6.77;;;10.90;99.90;;;;;;5036093;28;20213;-91
2022/04/29 01:44:36;;;;;;;12.80;7.55;;;10.90;99.90;;;;;;5035672;28;20181;-91
2022/04/29 01:47:03;;;;;;;9.55;6.47;;;10.90;99.90;;;;;;5036685;28;20198;-89
2022/04/29 01:49:28;;;;;;;10.23;7.63;;;10.90;99.90;;;;;;5036581;28;20178;-91
2022/04/29 01:51:56;;;;;;;8.00;5.90;;;10.90;99.90;;;;;;5053365;28;20279;-87
2022/04/29 01:54:21;;;;;;;11.13;7.18;;;10.80;99.90;;;;;;5035432;28;20231;-86
2022/04/29 01:56:47;;;;;;;10.90;6.73;;;10.80;99.90;;;;;;5053748;28;20190;-91
2022/04/29 01:59:14;;;;;;;7.03;6.00;;;10.80;99.90;;;;;;5054227;28;20390;-90
2022/04/29 02:01:39;;;;;;;9.15;6.25;;;10.80;99.90;;;;;;5055043;28;20407;-91
2022/04/29 02:04:05;;;;;;;11.00;6.87;;;10.80;99.90;;;;;;5054501;28;20178;-86
2022/04/29 02:06:31;;;;;;;8.67;6.37;;;10.80;99.90;;;;;;5036302;28;20801;-87
2022/04/29 02:08:57;;;;;;;11.40;5.90;;;10.80;99.90;;;;;;5035982;28;20426;-91
2022/04/29 02:11:23;;;;;;;7.63;6.40;;;10.80;99.90;;;;;;5036590;28;20233;-90
2022/04/29 02:13:49;;;;;;;9.43;7.13;;;10.80;99.90;;;;;;5054725;28;20170;-90
2022/04/29 02:16:15;;;;;;;11.85;7.30;;;10.80;99.90;;;;;;5038555;28;20197;-91
2022/04/29 02:18:41;;;;;;;7.10;5.67;;;10.80;99.90;;;;;;5061336;28;20194;-91
2022/04/29 02:21:07;;;;;;;8.37;5.50;;;10.80;99.90;;;;;;5059222;28;20257;-89
2022/04/29 02:23:33;;;;;;;8.73;6.00;;;10.90;99.90;;;;;;5062505;28;20488;-91
2022/04/29 02:25:59;;;;;;;11.68;5.68;;;10.80;99.90;;;;;;5030489;28;20422;-91
2022/04/29 02:28:27;;;;;;;10.00;6.30;;;10.80;99.90;;;;;;5013015;28;20778;-86
2022/04/29 02:30:55;;;;;;;8.65;5.68;;;10.80;99.90;;;;;;5011624;28;20222;-91
2022/04/29 02:33:21;;;;;;;8.48;6.47;;;10.80;99.90;;;;;;5013278;28;20661;-86
2022/04/29 02:35:47;;;;;;;13.67;6.47;;;10.80;99.90;;;;;;5013551;28;20203;-90
2022/04/29 02:38:13;;;;;;;7.03;4.77;;;10.80;99.90;;;;;;5012262;28;20433;-91
2022/04/29 02:40:39;;;;;;;8.10;5.90;;;10.80;99.90;;;;;;5013359;28;20190;-87
2022/04/29 02:43:05;;;;;;;11.13;6.15;;;10.80;99.90;;;;;;5011523;28;20241;-87
2022/04/29 02:45:32;;;;;;;8.33;6.17;;;10.70;99.90;;;;;;5013038;28;20179;-91
2022/04/29 02:47:58;;;;;;;8.25;5.72;;;10.70;99.90;;;;;;5013993;28;20456;-91
2022/04/29 02:50:24;;;;;;;9.27;5.65;;;10.70;99.90;;;;;;5029889;28;20232;-91
2022/04/29 02:52:50;;;;;;;7.05;5.28;;;10.60;99.90;;;;;;5013550;28;20270;-87
2022/04/29 02:55:16;;;;;;;6.40;5.30;;;10.60;99.90;;;;;;5012697;28;20696;-87
2022/04/29 02:57:42;;;;;;;7.30;5.43;;;10.60;99.90;;;;;;5014243;28;20449;-91
2022/04/29 03:00:08;;;;;;;7.10;5.40;;;10.50;99.90;;;;;;5013322;28;20628;-87
2022/04/29 03:02:34;;;;;;;6.72;5.40;;;10.50;99.90;;;;;;5014010;28;20199;-87
2022/04/29 03:05:00;;;;;;;6.60;5.10;;;10.40;99.90;;;;;;5018052;28;20244;-91
2022/04/29 03:07:25;;;;;;;9.33;6.40;;;10.40;99.90;;;;;;5011550;28;20210;-87
2022/04/29 03:09:51;;;;;;;9.20;6.00;;;10.40;99.90;;;;;;5014462;28;20245;-87
2022/04/29 03:12:17;;;;;;;5.80;5.20;;;10.40;99.90;;;;;;5047289;28;20664;-87
2022/04/29 03:14:42;;;;;;;9.30;6.33;;;10.40;99.90;;;;;;5048412;28;20424;-87
2022/04/29 03:19:53;;;;;;;8.73;6.40;;;10.40;99.90;;;;;;5034428;28;20525;-87
2022/04/29 03:22:19;;;;;;;9.37;5.97;;;10.40;99.90;;;;;;5048053;28;20202;-91
2022/04/29 03:24:44;;;;;;;7.57;5.93;;;10.40;99.90;;;;;;5033142;28;20174;-92
2022/04/29 03:27:10;;;;;;;7.37;5.90;;;10.40;99.90;;;;;;5044468;28;20193;-92
2022/04/29 03:29:37;;;;;;;12.43;6.43;;;10.40;99.90;;;;;;5035174;28;20694;-91
2022/04/29 03:32:03;;;;;;;5.85;5.18;;;10.40;99.90;;;;;;5035000;28;20598;-90
2022/04/29 03:34:28;;;;;;;7.40;5.40;;;10.40;99.90;;;;;;5034994;28;20181;-87
2022/04/29 03:36:54;;;;;;;6.70;5.10;;;10.30;99.90;;;;;;5052909;28;20926;-92
2022/04/29 03:39:20;;;;;;;9.20;6.60;;;10.30;99.90;;;;;;5034871;28;20186;-87
2022/04/29 03:41:45;;;;;;;8.67;6.10;;;10.30;99.90;;;;;;5035185;28;20202;-92
2022/04/29 03:44:11;;;;;;;7.93;5.33;;;10.30;99.90;;;;;;5036747;28;20181;-92
2022/04/29 03:46:37;;;;;;;6.63;5.53;;;10.30;99.90;;;;;;5057198;28;20626;-88
2022/04/29 03:51:47;;;;;;;7.82;5.97;;;10.30;99.90;;;;;;5052033;28;20228;-87
2022/04/29 03:54:13;;;;;;;9.23;5.25;;;10.30;99.90;;;;;;5051824;28;20174;-90
2022/04/29 03:56:38;;;;;;;8.63;6.37;;;10.30;99.90;;;;;;5034520;28;20264;-92
2022/04/29 03:59:05;;;;;;;9.93;5.43;;;10.20;99.90;;;;;;5050938;28;20173;-88
2022/04/29 04:01:32;;;;;;;8.15;5.25;;;10.20;99.90;;;;;;5033556;28;20211;-87
2022/04/29 04:03:57;;;;;;;7.47;4.57;;;10.20;99.90;;;;;;5034986;28;20178;-91
2022/04/29 04:09:08;;;;;;;8.20;6.07;;;10.30;99.90;;;;;;5053437;28;20169;-87
2022/04/29 04:11:36;;;;;;;7.00;5.32;;;10.40;99.90;;;;;;5053457;28;20237;-91
2022/04/29 04:14:02;;;;;;;11.60;5.13;;;10.40;99.90;;;;;;5049162;28;20170;-91
2022/04/29 04:16:27;;;;;;;6.80;5.43;;;10.40;99.90;;;;;;5034370;28;20174;-91
2022/04/29 04:18:53;;;;;;;10.97;6.37;;;10.50;99.90;;;;;;5033508;28;20177;-90
2022/04/29 04:21:19;;;;;;;7.40;5.00;;;10.50;99.90;;;;;;5042750;28;20228;-87
2022/04/29 04:23:44;;;;;;;7.67;5.33;;;10.60;99.90;;;;;;5015259;28;20675;-90
2022/04/29 04:26:10;;;;;;;7.93;5.50;;;10.60;99.90;;;;;;5014571;28;20179;-88
2022/04/29 04:28:36;;;;;;;7.43;5.40;;;10.70;99.90;;;;;;5034065;28;20206;-91
2022/04/29 04:31:01;;;;;;;12.13;6.40;;;10.70;99.90;;;;;;5016961;28;20285;-91
2022/04/29 04:33:27;;;;;;;5.07;4.47;;;10.80;99.90;;;;;;5017325;28;20202;-91
2022/04/29 04:35:53;;;;;;;5.30;4.80;;;10.80;99.90;;;;;;5035323;28;20537;-88
2022/04/29 04:38:18;;;;;;;6.90;5.20;;;10.80;99.90;;;;;;5039366;28;20662;-87
2022/04/29 04:40:44;;;;;;;5.70;4.40;;;10.90;99.90;;;;;;5016513;28;20652;-87
2022/04/29 04:43:10;;;;;;;5.23;4.63;;;10.90;99.90;;;;;;5035377;28;20687;-87
2022/04/29 04:45:36;;;;;;;8.60;6.33;;;11.00;99.90;;;;;;5017486;28;20229;-87
2022/04/29 04:48:01;;;;;;;7.00;5.40;;;11.00;99.90;;;;;;5034140;28;20210;-87
2022/04/29 04:50:27;;;;;;;5.80;5.20;;;11.00;99.90;;;;;;5034535;28;20505;-91
2022/04/29 04:52:53;;;;;;;7.13;5.00;;;11.10;99.90;;;;;;5020395;28;20697;-87
2022/04/29 04:55:18;;;;;;;8.20;5.60;;;11.10;99.90;;;;;;5017261;28;20182;-91
2022/04/29 04:57:44;;;;;;;9.73;5.60;;;11.20;99.90;;;;;;5033862;28;20285;-91
2022/04/29 05:00:10;;;;;;;7.93;5.13;;;11.20;99.90;;;;;;5035872;28;20190;-87
2022/04/29 05:02:40;;;;;;;7.35;5.53;;;11.30;99.90;;;;;;5017520;28;20202;-91
2022/04/29 05:05:06;;;;;;;7.45;4.78;;;11.30;99.90;;;;;;5020609;28;20347;-91
2022/04/29 05:07:32;;;;;;;6.70;4.30;;;11.40;99.90;;;;;;5031482;28;20203;-89
2022/04/29 05:09:58;;;;;;;9.30;5.10;;;11.40;99.90;;;;;;5026036;28;20283;-90
2022/04/29 05:12:24;;;;;;;6.23;4.47;;;11.50;99.90;;;;;;5113921;28;21036;-90
2022/04/29 05:14:49;;;;;;;5.90;4.90;;;11.60;99.90;;;;;;5111844;28;20190;-86
2022/04/29 05:17:15;;;;;;;7.30;4.90;;;11.60;99.90;;;;;;5097732;28;20455;-86
2022/04/29 05:19:41;;;;;;;8.03;5.60;;;11.70;99.90;;;;;;5114157;28;20179;-91
2022/04/29 05:22:07;;;;;;;7.07;5.03;;;11.80;99.90;;;;;;5095225;28;20195;-86
2022/04/29 05:24:34;;;;;;;6.30;4.85;;;11.80;99.90;;;;;;5096033;28;20180;-90
2022/04/29 05:27:01;;;;;;;6.75;4.75;;;11.90;99.90;;;;;;5085253;28;20220;-86
2022/04/29 05:29:26;;;;;;;8.18;5.07;;;12.00;99.90;;;;;;5091239;28;20186;-90
2022/04/29 05:31:53;;;;;;;5.13;4.43;;;12.00;99.90;;;;;;5117327;28;20207;-91
2022/04/29 05:34:19;;;;;;;4.82;4.28;;;12.10;99.90;;;;;;5097601;28;20391;-92
2022/04/29 05:36:44;;;;;;;5.70;4.13;;;12.20;99.90;;;;;;5118224;28;20273;-91
2022/04/29 05:44:39;;;;;;;5.38;4.45;;;12.40;99.90;;;;;;5117268;28;20183;-87
2022/04/29 05:47:05;;;;;;;5.90;4.90;;;12.50;99.90;;;;;;5097744;28;20574;-87
2022/04/29 05:49:31;;;;;;;6.57;4.40;;;12.60;99.90;;;;;;5114554;28;20420;-92
2022/04/29 05:51:59;;;;;;;6.37;4.40;;;12.60;99.90;;;;;;5088337;28;20220;-87
2022/04/29 05:54:25;;;;;;;6.43;5.10;;;12.70;99.90;;;;;;5083680;28;20192;-91
2022/04/29 05:56:50;;;;;;;4.97;4.47;;;12.80;99.90;;;;;;5113143;28;20199;-87
2022/04/29 05:59:16;;;;;;;7.77;4.90;;;12.90;99.90;;;;;;5093486;28;20200;-87
2022/04/29 06:01:42;;;;;;;7.43;5.10;;;13.00;99.90;;;;;;5091665;28;20672;-88
2022/04/29 06:04:07;;;;;;;6.63;4.97;;;13.10;99.90;;;;;;5111014;28;20180;-87
2022/04/29 06:06:33;;;;;;;8.30;5.20;;;13.20;99.90;;;;;;5104693;28;20581;-87
2022/04/29 06:08:59;;;;;;;6.90;4.50;;;13.30;99.90;;;;;;5110458;28;20200;-87
2022/04/29 06:11:25;;;;;;;5.80;4.77;;;13.30;99.90;;;;;;5098971;27;20518;-87
2022/04/29 06:13:51;;;;;;;8.77;5.00;;;13.40;99.90;;;;;;5096906;28;20771;-87
2022/04/29 06:16:17;;;;;;;5.10;3.90;;;13.50;99.90;;;;;;5102480;28;20696;-87
2022/04/29 06:18:43;;;;;;;6.30;4.90;;;13.60;99.90;;;;;;5124270;27;20183;-87
2022/04/29 06:21:09;;;;;;;7.23;5.30;;;13.70;99.90;;;;;;5122259;27;20499;-87
2022/04/29 06:23:35;;;;;;;5.73;4.80;;;13.90;99.90;;;;;;5096676;28;20519;-87
2022/04/29 06:26:00;;;;;;;5.10;3.90;;;13.90;99.90;;;;;;5119709;27;20424;-88
2022/04/29 06:28:26;;;;;;;5.17;4.43;;;14.00;99.90;;;;;;5112392;27;20452;-91
2022/04/29 06:30:52;;;;;;;5.57;4.07;;;14.10;99.90;;;;;;5112738;27;20219;-92
2022/04/29 06:33:18;;;;;;;4.73;4.00;;;14.20;99.90;;;;;;5096668;28;20290;-91
2022/04/29 06:35:47;;;;;;;6.47;4.97;;;14.30;99.90;;;;;;5113352;28;20485;-91
2022/04/29 06:38:13;;;;;;;4.47;4.07;;;14.40;99.90;;;;;;5114511;28;20447;-91
2022/04/29 06:40:39;;;;;;;7.17;3.70;;;14.50;99.90;;;;;;5117901;28;20423;-92
2022/04/29 06:43:05;;;;;;;7.20;4.83;;;14.60;99.90;;;;;;5097328;28;20199;-87
2022/04/29 06:45:30;;;;;;;7.70;4.80;;;14.70;99.90;;;;;;5097179;28;20218;-87
2022/04/29 06:47:56;;;;;;;4.60;4.03;;;14.80;99.90;;;;;;5115016;28;20440;-87
2022/04/29 06:50:22;;;;;;;4.43;4.03;;;14.90;99.90;;;;;;5097406;28;20179;-92
2022/04/29 06:52:47;;;;;;;7.80;4.97;;;14.90;99.90;;;;;;5096843;28;20234;-92
2022/04/29 06:55:13;;;;;;;5.80;4.47;;;15.00;99.90;;;;;;5097591;28;20271;-91
2022/04/29 06:57:39;;;;;;;6.50;4.17;;;15.10;99.90;;;;;;5110554;28;20207;-92
2022/04/29 07:00:06;;;;;;;4.27;3.80;;;15.20;99.90;;;;;;5096123;28;20448;-93
2022/04/29 07:02:33;;;;;;;7.27;5.60;;;15.30;99.90;;;;;;5096286;27;20210;-93
2022/04/29 07:04:59;;;;;;;5.67;4.20;;;15.30;99.90;;;;;;5109448;28;20500;-92
2022/04/29 07:07:28;;;;;;;7.30;4.30;;;15.40;99.90;;;;;;5096922;28;20471;-92
2022/04/29 07:09:55;;;;;;;4.67;3.50;;;15.50;99.90;;;;;;5099299;27;20434;-86
2022/04/29 07:12:20;;;;;;;4.43;3.50;;;15.60;99.90;;;;;;5107164;27;20472;-91
2022/04/29 07:14:46;;;;;;;6.00;4.50;;;15.60;99.90;;;;;;5021948;28;20863;-91
2022/04/29 07:17:12;;;;;;;4.87;3.77;;;15.70;99.90;;;;;;5026706;28;20227;-91
2022/04/29 07:19:38;;;;;;;5.17;4.07;;;15.80;99.90;;;;;;5015075;28;20440;-87
2022/04/29 07:22:05;;;;;;;5.30;3.90;;;15.90;99.90;;;;;;5021071;28;20434;-87
2022/04/29 07:24:31;;;;;;;4.30;3.70;;;16.00;99.90;;;;;;5014738;28;20221;-87
2022/04/29 07:26:57;;;;;;;5.67;4.30;;;16.10;99.90;;;;;;5020593;28;20432;-87
2022/04/29 07:29:23;;;;;;;4.03;3.60;;;16.10;99.90;;;;;;5027661;28;20492;-88
2022/04/29 07:31:49;;;;;;;5.80;4.23;;;16.20;99.90;;;;;;5013932;28;20475;-87
2022/04/29 07:34:15;;;;;;;6.13;4.60;;;16.30;99.90;;;;;;5027402;28;20965;-87
2022/04/29 07:42:09;;;;;;;4.80;3.97;;;16.60;99.90;;;;;;5040709;27;20496;-93
2022/04/29 07:44:35;;;;;;;5.87;4.17;;;16.70;99.90;;;;;;5034751;28;20745;-88
2022/04/29 07:47:01;;;;;;;4.80;3.80;;;16.80;99.90;;;;;;5036287;27;20247;-92
2022/04/29 07:49:27;;;;;;;5.67;4.10;;;16.80;99.90;;;;;;5033262;28;20758;-92
2022/04/29 07:51:53;;;;;;;5.23;3.83;;;16.90;99.90;;;;;;5055316;28;20506;-93
2022/04/29 07:54:19;;;;;;;4.37;3.97;;;17.00;99.90;;;;;;5014835;28;20537;-91
2022/04/29 07:56:44;;;;;;;8.53;3.90;;;17.10;99.90;;;;;;5026951;28;20975;-93
2022/04/29 07:59:10;;;;;;;5.00;3.60;;;17.20;99.90;;;;;;5016738;28;20652;-87
2022/04/29 08:01:37;;;;;;;6.70;3.40;;;17.30;99.90;;;;;;5049214;27;20186;-87
2022/04/29 08:04:03;;;;;;;4.17;3.77;;;17.30;99.90;;;;;;5038387;27;20455;-87
2022/04/29 08:06:29;;;;;;;3.97;3.63;;;17.50;99.90;;;;;;5018471;28;20434;-93
2022/04/29 08:08:54;;;;;;;5.27;3.80;;;17.60;99.90;;;;;;5035155;28;20415;-90
2022/04/29 08:11:20;;;;;;;6.03;4.50;;;17.60;99.90;;;;;;5012965;28;20238;-92
2022/04/29 08:13:47;;;;;;;6.37;3.50;;;17.70;99.90;;;;;;5003392;28;20733;-87
2022/04/29 08:16:13;;;;;;;5.23;4.50;;;17.80;99.90;;;;;;5013291;28;20443;-87
2022/04/29 08:18:40;;;;;;;5.40;3.93;;;17.90;99.90;;;;;;5040762;27;20447;-92
2022/04/29 08:21:06;;;;;;;4.90;3.83;;;18.00;99.90;;;;;;5010413;28;20448;-87
2022/04/29 08:23:33;;;;;;;6.33;3.20;;;18.10;99.90;;;;;;5018535;28;20413;-92
2022/04/29 08:25:58;;;;;;;5.17;3.93;;;18.20;99.90;;;;;;5012657;28;20457;-87
2022/04/29 08:28:26;;;;;;;4.47;3.90;;;18.30;99.90;;;;;;5026636;28;20492;-92
2022/04/29 08:30:52;;;;;;;4.60;3.27;;;18.40;99.90;;;;;;5023148;28;20206;-87
2022/04/29 08:33:18;;;;;;;4.20;3.23;;;18.40;99.90;;;;;;5023122;28;20455;-87
2022/04/29 08:35:44;;;;;;;3.40;2.80;;;18.50;99.90;;;;;;5014157;28;20980;-87
2022/04/29 08:38:10;;;;;;;4.00;3.57;;;18.50;99.90;;;;;;5037217;27;20446;-92
2022/04/29 08:40:41;;;;;;;3.83;3.03;;;18.50;99.90;;;;;;5017192;28;20436;-87
2022/04/29 08:43:07;;;;;;;4.37;3.70;;;18.60;99.90;;;;;;5016837;28;20817;-87
2022/04/29 08:45:33;;;;;;;4.87;3.57;;;18.60;99.90;;;;;;5013926;28;20444;-92
2022/04/29 08:47:59;;;;;;;4.87;3.60;;;18.70;99.90;;;;;;5021777;28;20452;-92
2022/04/29 08:50:26;;;;;;;5.80;4.20;;;18.70;99.90;;;;;;5029462;28;20441;-91
2022/04/29 08:52:54;;;;;;;8.20;3.83;;;18.80;99.90;;;;;;5118803;27;20446;-91
2022/04/29 09:00:49;;;;;;;4.10;3.70;;;19.00;99.90;;;;;;5046682;27;20445;-87
2022/04/29 09:03:18;;;;;;;4.73;3.80;;;19.10;99.90;;;;;;5075065;27;20460;-88
2022/04/29 09:05:45;;;;;;;5.23;3.40;;;19.10;99.90;;;;;;5049061;28;20801;-90
2022/04/29 09:08:16;;;;;;;3.70;3.27;;;19.20;99.90;;;;;;5069842;27;20513;-87
2022/04/29 09:10:51;;;;;;;5.43;3.50;;;19.30;99.90;;;;;;5082969;28;20517;-92
2022/04/29 09:13:24;;;;;;;3.90;2.80;;;19.40;99.90;;;;;;5106610;28;21133;-87
2022/04/29 09:15:58;;;;;;;5.20;2.97;;;19.40;99.90;;;;;;5111318;28;20459;-87
2022/04/29 09:18:33;;;;;;;3.73;3.43;;;19.50;99.90;;;;;;5092482;28;20980;-87
2022/04/29 09:21:05;;;;;;;4.60;3.07;;;19.60;99.90;;;;;;5117180;27;20650;-87
2022/04/29 09:23:31;;;;;;;3.27;2.97;;;19.60;99.90;;;;;;5092947;28;20540;-87
2022/04/29 09:25:59;;;;;;;3.83;3.13;;;19.70;99.90;;;;;;5092873;28;20434;-87
2022/04/29 09:28:25;;;;;;;4.60;3.73;;;19.80;99.90;;;;;;5090409;27;21001;-87
2022/04/29 09:30:56;;;;;;;3.03;2.73;;;19.70;99.90;;;;;;5100801;28;20738;-87
2022/04/29 09:33:24;;;;;;;3.90;3.37;;;19.80;99.90;;;;;;5092900;27;20465;-92
2022/04/29 09:35:51;;;;;;;4.20;3.20;;;19.80;99.90;;;;;;5102262;27;20444;-92
2022/04/29 09:41:02;;;;;;;2.73;2.50;;;19.90;99.90;;;;;;5112517;27;20456;-92
2022/04/29 09:43:34;;;;;;;4.27;3.00;;;19.90;99.90;;;;;;5110532;27;20451;-92
2022/04/29 09:46:13;;;;;;;3.63;3.33;;;20.00;99.90;;;;;;5091393;28;20471;-92
2022/04/29 09:49:06;;;;;;;7.03;4.27;;;20.00;99.90;;;;;;5110536;27;20546;-93
2022/04/29 09:51:52;;;;;;;3.87;3.47;;;20.00;99.90;;;;;;5094274;28;20492;-87
2022/04/29 09:54:26;;;;;;;6.00;3.47;;;20.00;99.90;;;;;;5101254;28;20438;-91
2022/04/29 09:57:05;;;;;;;4.33;3.10;;;20.00;99.90;;;;;;5113802;28;20462;-91
2022/04/29 09:59:40;;;;;;;3.17;2.87;;;20.00;99.90;;;;;;5093118;28;20433;-86
2022/04/29 10:02:07;;;;;;;2.93;2.57;;;20.00;99.90;;;;;;5093828;28;20456;-87
2022/04/29 10:04:35;;;;;;;4.77;3.70;;;20.00;99.90;;;;;;5095221;27;20443;-91
2022/04/29 10:07:06;;;;;;;5.00;3.30;;;19.90;99.90;;;;;;5092650;28;21001;-91
2022/04/29 10:09:34;;;;;;;4.40;3.57;;;19.90;99.90;;;;;;5110695;28;20471;-87
2022/04/29 10:12:02;;;;;;;3.90;3.43;;;19.90;99.90;;;;;;5041864;28;20526;-88
2022/04/29 10:14:30;;;;;;;7.20;3.07;;;19.90;99.90;;;;;;5024588;28;20990;-92
2022/04/29 10:23:01;;;;;;;3.90;3.33;;;20.10;99.90;;;;;;5003141;28;20470;-88
2022/04/29 10:25:28;;;;;;;3.43;3.10;;;20.20;99.90;;;;;;5011620;28;21197;-87
2022/04/29 10:27:54;;;;;;;6.10;3.60;;;20.20;99.90;;;;;;5018280;28;20447;-93
2022/04/29 10:30:36;;;;;;;5.50;4.33;;;20.20;99.90;;;;;;5003131;28;20432;-92
2022/04/29 10:33:06;;;;;;;4.03;3.63;;;20.20;99.90;;;;;;5110749;28;20808;-88
2022/04/29 10:35:43;;;;;;;3.43;3.13;;;20.20;99.90;;;;;;4993560;28;20767;-87
2022/04/29 10:38:34;;;;;;;5.27;4.03;;;20.20;99.90;;;;;;4993834;28;20459;-87
2022/04/29 10:41:20;;;;;;;5.07;4.07;;;20.30;99.90;;;;;;5009359;28;20446;-87
2022/04/29 10:43:49;;;;;;;4.53;4.13;;;20.30;99.90;;;;;;4993981;28;20809;-88
2022/04/29 10:46:20;;;;;;;8.40;4.67;;;20.20;99.90;;;;;;4991567;28;20497;-87
2022/04/29 10:48:47;;;;;;;5.00;4.03;;;20.10;99.90;;;;;;4984891;28;20470;-86
2022/04/29 10:51:26;;;;;;;8.97;6.60;;;20.00;99.90;;;;;;5025233;28;20520;-87
2022/04/29 10:53:58;;;;;;;5.40;3.70;;;19.90;99.90;;;;;;5004923;28;20441;-86
2022/04/29 10:56:30;;;;;;;3.90;3.50;;;19.90;99.90;;;;;;5006989;28;20426;-86
2022/04/29 10:59:10;;;;;;;4.17;3.23;;;19.90;99.90;;;;;;4996268;28;20431;-86
2022/04/29 11:01:37;;;;;;;7.40;3.80;;;19.90;99.90;;;;;;4986977;28;20493;-91
2022/04/29 11:04:15;;;;;;;5.47;3.90;;;19.90;99.90;;;;;;4998538;28;20452;-91
2022/04/29 11:06:45;;;;;;;9.67;5.63;;;19.90;99.90;;;;;;5002697;28;20496;-92
2022/04/29 11:09:49;;;;;;;3.97;3.43;;;20.00;99.90;;;;;;4993421;28;20447;-87
2022/04/29 11:12:32;;;;;;;3.53;3.17;;;20.00;99.90;;;;;;5086210;28;20574;-86
2022/04/29 11:15:23;;;;;;;3.73;3.10;;;20.10;99.90;;;;;;5091229;28;20439;-87
2022/04/29 11:17:49;;;;;;;3.33;3.03;;;20.10;99.90;;;;;;5091284;28;20518;-87
2022/04/29 11:20:25;;;;;;;4.93;3.40;;;20.20;99.90;;;;;;5089726;28;20417;-87
2022/04/29 11:25:54;;;;;;;3.40;3.00;;;20.40;99.90;;;;;;5106336;27;20426;-87
2022/04/29 11:28:20;;;;;;;5.53;3.63;;;20.40;99.90;;;;;;5090646;28;20490;-87
2022/04/29 11:30:47;;;;;;;3.63;3.33;;;20.50;99.90;;;;;;5087348;28;21073;-87
2022/04/29 11:33:13;;;;;;;3.30;3.00;;;20.50;99.90;;;;;;5082490;28;20949;-87
2022/04/29 11:35:40;;;;;;;5.10;4.00;;;20.50;99.90;;;;;;5091419;28;20940;-87
2022/04/29 11:38:09;;;;;;;4.20;3.67;;;20.60;99.90;;;;;;5106753;27;20558;-91
2022/04/29 11:40:42;;;;;;;4.17;2.97;;;20.50;99.90;;;;;;5103980;28;20399;-92
2022/04/29 11:43:10;;;;;;;3.63;3.33;;;20.50;99.90;;;;;;5100052;28;21005;-92
2022/04/29 11:45:41;;;;;;;3.90;3.30;;;20.50;99.90;;;;;;5086230;28;20487;-87
2022/04/29 11:48:07;;;;;;;3.03;2.83;;;20.60;99.90;;;;;;5101412;28;20565;-92
2022/04/29 11:50:34;;;;;;;5.20;4.63;;;20.60;99.90;;;;;;5095573;28;20397;-93
2022/04/29 11:53:12;;;;;;;4.70;3.73;;;20.70;99.90;;;;;;5097662;28;20463;-87
2022/04/29 11:55:38;;;;;;;4.00;3.27;;;20.80;99.90;;;;;;5085215;28;20450;-93
2022/04/29 11:58:04;;;;;;;3.20;2.90;;;20.90;99.90;;;;;;5086524;28;20564;-92
2022/04/29 12:00:32;;;;;;;3.90;3.50;;;20.90;99.90;;;;;;5091658;28;20460;-91
2022/04/29 12:02:59;;;;;;;3.20;2.90;;;20.90;99.90;;;;;;5085743;28;20531;-88
2022/04/29 12:05:29;;;;;;;7.60;3.37;;;20.90;99.90;;;;;;5085696;28;20545;-88
2022/04/29 12:08:02;;;;;;;4.00;3.30;;;21.00;99.90;;;;;;5100912;28;20467;-92
2022/04/29 12:10:31;;;;;;;3.40;3.00;;;21.10;99.90;;;;;;5079994;28;20837;-92
2022/04/29 12:12:57;;;;;;;3.70;3.30;;;21.10;99.90;;;;;;5088041;28;20464;-92
2022/04/29 12:15:32;;;;;;;3.57;3.27;;;21.10;99.90;;;;;;5089624;28;20407;-91
2022/04/29 12:18:09;;;;;;;3.60;3.23;;;21.10;99.90;;;;;;5113063;28;20439;-92
2022/04/29 12:20:37;;;;;;;4.03;2.90;;;21.10;99.90;;;;;;5108807;28;20898;-91
2022/04/29 12:23:16;;;;;;;4.10;3.70;;;21.20;99.90;;;;;;5107213;28;20827;-88
2022/04/29 12:25:47;;;;;;;3.67;3.37;;;21.20;99.90;;;;;;5093231;28;20473;-92
2022/04/29 12:28:27;;;;;;;6.47;3.70;;;21.20;99.90;;;;;;5093889;28;20432;-87
2022/04/29 12:37:00;;;;;;;5.70;3.90;;;20.90;99.90;;;;;;5110223;28;20458;-92
2022/04/29 12:39:41;;;;;;;4.57;3.50;;;21.00;99.90;;;;;;5110030;28;20445;-87
2022/04/29 12:42:10;;;;;;;3.67;3.37;;;21.00;99.90;;;;;;5089335;28;20463;-87
2022/04/29 12:47:38;;;;;;;4.70;3.60;;;21.10;99.90;;;;;;5111137;28;20449;-93
2022/04/29 12:50:24;;;;;;;6.40;2.80;;;21.10;99.90;;;;;;5096490;28;20451;-87
2022/04/29 12:53:00;;;;;;;4.00;2.90;;;21.20;99.90;;;;;;5095937;28;20578;-87
2022/04/29 12:55:27;;;;;;;3.03;2.73;;;21.20;99.90;;;;;;5092147;28;20439;-87
2022/04/29 12:58:04;;;;;;;3.40;2.73;;;21.30;99.90;;;;;;5112911;28;20990;-88
2022/04/29 13:00:30;;;;;;;3.30;2.57;;;21.20;99.90;;;;;;5096570;28;20431;-92
2022/04/29 13:03:04;;;;;;;3.10;2.80;;;21.20;99.90;;;;;;5104056;28;20452;-92
2022/04/29 13:05:31;;;;;;;3.07;2.77;;;21.10;99.90;;;;;;5092590;28;20432;-87
2022/04/29 13:07:57;;;;;;;3.60;3.17;;;21.00;99.90;;;;;;5097537;28;20452;-92
2022/04/29 13:10:23;;;;;;;3.73;3.33;;;21.00;99.90;;;;;;5071785;27;20835;-87
2022/04/29 13:12:50;;;;;;;2.80;2.40;;;20.90;99.90;;;;;;5025636;28;20558;-87
2022/04/29 13:15:17;;;;;;;2.70;2.50;;;20.80;99.90;;;;;;5032051;28;20436;-88
2022/04/29 13:17:42;;;;;;;2.80;2.60;;;20.80;99.90;;;;;;5033463;28;20430;-92
2022/04/29 13:20:08;;;;;;;3.47;2.50;;;20.70;99.90;;;;;;5012242;28;20622;-86
2022/04/29 13:22:38;;;;;;;3.30;2.63;;;20.80;99.90;;;;;;5018903;28;20209;-92
2022/04/29 13:25:10;;;;;;;3.37;2.87;;;20.90;99.90;;;;;;5030467;28;20472;-88
2022/04/29 13:27:36;;;;;;;2.80;2.60;;;20.90;99.90;;;;;;5057726;27;20463;-93
2022/04/29 13:30:08;;;;;;;2.47;2.00;;;21.00;99.90;;;;;;5059807;27;20862;-91
2022/04/29 13:32:34;;;;;;;2.50;2.30;;;20.90;99.90;;;;;;5040178;27;20500;-92
2022/04/29 13:35:00;;;;;;;6.13;3.10;;;20.90;99.90;;;;;;5046466;27;20438;-87